createdAt,value
2022-08-03T00:00:07.495Z,40.92
2022-08-03T00:05:13.859Z,41.07
2022-08-03T00:10:15.316Z,41.30
2022-08-03T00:15:17.181Z,41.42
2022-08-03T00:20:18.622Z,41.55
2022-08-03T00:25:19.933Z,41.78
2022-08-03T00:30:21.353Z,41.86
2022-08-03T00:35:35.110Z,41.97
2022-08-03T00:40:38.656Z,42.22
2022-08-03T00:45:41.232Z,42.10
2022-08-03T00:50:42.938Z,42.23
2022-08-03T00:55:44.617Z,42.12
2022-08-03T01:00:46.242Z,41.99
2022-08-03T01:05:58.921Z,42.08
2022-08-03T01:11:10.134Z,42.06
2022-08-03T01:16:28.006Z,42.35
2022-08-03T01:21:52.480Z,42.31
2022-08-03T01:26:59.875Z,42.44
2022-08-03T01:33:00.249Z,42.62
2022-08-03T01:37:42.709Z,42.79
2022-08-03T01:42:45.441Z,42.96
2022-08-03T01:47:48.238Z,43.30
2022-08-03T01:52:50.306Z,43.06
2022-08-03T01:58:05.410Z,42.96
2022-08-03T02:03:08.591Z,43.12
2022-08-03T02:08:12.294Z,43.20
2022-08-03T02:13:15.119Z,43.40
2022-08-03T02:18:18.405Z,43.33
2022-08-03T02:23:19.773Z,43.26
2022-08-03T02:28:22.229Z,43.23
2022-08-03T02:33:34.423Z,43.33
2022-08-03T02:44:06.974Z,44.13
2022-08-03T02:49:42.153Z,43.99
2022-08-03T02:54:32.578Z,44.15
2022-08-03T02:59:34.444Z,44.13
2022-08-03T03:04:35.853Z,44.21
2022-08-03T03:09:41.844Z,44.07
2022-08-03T03:14:44.678Z,44.34
2022-08-03T03:19:47.088Z,44.78
2022-08-03T03:24:51.625Z,45.09
2022-08-03T03:29:53.069Z,45.65
2022-08-03T03:34:54.885Z,46.12
2022-08-03T03:39:56.239Z,46.12
2022-08-03T03:44:58.000Z,46.45
2022-08-03T03:50:02.054Z,46.65
2022-08-03T03:55:03.533Z,47.22
2022-08-03T04:00:06.065Z,47.21
2022-08-03T04:05:26.759Z,47.12
2022-08-03T04:10:50.216Z,47.16
2022-08-03T04:15:51.874Z,47.26
2022-08-03T04:20:54.338Z,47.26
2022-08-03T04:25:56.309Z,47.30
2022-08-03T04:30:57.889Z,47.20
2022-08-03T04:36:03.685Z,47.21
2022-08-03T04:41:05.541Z,46.96
2022-08-03T04:46:07.745Z,46.79
2022-08-03T04:51:10.835Z,46.72
2022-08-03T04:56:12.188Z,46.76
2022-08-03T05:01:13.677Z,46.77
2022-08-03T05:06:16.262Z,46.54
2022-08-03T05:11:18.035Z,46.50
2022-08-03T05:16:19.490Z,46.58
2022-08-03T05:21:20.835Z,46.61
2022-08-03T05:26:22.180Z,46.62
2022-08-03T05:31:23.595Z,46.54
2022-08-03T05:36:25.108Z,46.69
2022-08-03T05:41:36.597Z,46.72
2022-08-03T05:46:39.053Z,46.49
2022-08-03T05:51:40.495Z,46.65
2022-08-03T05:56:41.849Z,46.50
2022-08-03T06:01:43.296Z,46.44
2022-08-03T06:06:44.773Z,46.27
2022-08-03T06:11:46.125Z,46.33
2022-08-03T06:16:47.535Z,46.22
2022-08-03T06:21:48.882Z,46.11
2022-08-03T06:26:52.187Z,46.17
2022-08-03T06:31:53.569Z,46.14
2022-08-03T06:37:01.371Z,45.89
2022-08-03T06:42:04.067Z,45.97
2022-08-03T06:47:05.474Z,45.71
2022-08-03T06:52:07.103Z,45.91
2022-08-03T06:57:09.585Z,45.93
2022-08-03T07:02:11.489Z,45.76
2022-08-03T07:07:13.833Z,45.54
2022-08-03T07:12:15.313Z,45.58
2022-08-03T07:17:16.774Z,45.11
2022-08-03T07:22:18.231Z,45.28
2022-08-03T07:27:19.754Z,45.03
2022-08-03T07:32:21.176Z,44.75
2022-08-03T07:37:22.611Z,44.38
2022-08-03T07:42:24.150Z,43.90
2022-08-03T07:47:34.841Z,43.61
2022-08-03T07:52:49.655Z,43.37
2022-08-03T07:58:01.219Z,43.16
2022-08-03T08:03:02.776Z,42.84
2022-08-03T08:08:04.265Z,42.30
2022-08-03T08:13:05.684Z,42.24
2022-08-03T08:18:07.073Z,41.69
2022-08-03T08:23:25.479Z,41.62
2022-08-03T08:28:33.679Z,41.34
2022-08-03T08:34:03.302Z,41.20
2022-08-03T08:38:57.424Z,40.82
2022-08-03T08:44:00.171Z,40.63
2022-08-03T08:49:05.169Z,40.49
2022-08-03T08:54:07.474Z,40.29
2022-08-03T08:59:08.914Z,40.14
2022-08-03T09:04:10.463Z,39.67
2022-08-03T09:09:11.992Z,39.47
2022-08-03T09:14:39.166Z,39.38
2022-08-03T09:20:03.676Z,38.79
2022-08-03T09:25:24.061Z,38.40
2022-08-03T09:30:34.674Z,38.12
2022-08-03T09:35:57.806Z,38.11
2022-08-03T09:41:00.790Z,37.68
2022-08-03T09:46:03.907Z,37.29
2022-08-03T09:51:13.057Z,36.97
2022-08-03T09:56:35.762Z,37.09
2022-08-03T10:01:37.344Z,36.76
2022-08-03T10:06:38.802Z,36.47
2022-08-03T10:11:42.241Z,35.79
2022-08-03T10:16:44.957Z,34.99
2022-08-03T10:21:49.362Z,35.19
2022-08-03T10:26:51.548Z,34.87
2022-08-03T10:31:58.090Z,34.83
2022-08-03T10:37:00.041Z,34.62
2022-08-03T10:42:02.827Z,34.48
2022-08-03T10:47:04.822Z,34.97
2022-08-03T10:52:13.793Z,34.40
2022-08-03T10:57:47.443Z,33.66
2022-08-03T11:03:03.970Z,33.25
2022-08-03T11:08:18.336Z,33.22
2022-08-03T11:13:20.963Z,32.48
2022-08-03T11:18:22.770Z,33.06
2022-08-03T11:24:05.046Z,32.85
2022-08-03T11:29:25.796Z,31.97
2022-08-03T11:34:27.282Z,31.16
2022-08-03T11:39:38.981Z,30.85
2022-08-03T11:44:40.967Z,30.49
2022-08-03T11:49:43.088Z,29.98
2022-08-03T11:54:44.715Z,29.74
2022-08-03T11:59:46.129Z,29.16
2022-08-03T12:04:58.167Z,28.41
2022-08-03T12:10:06.576Z,28.31
2022-08-03T12:15:08.664Z,27.87
2022-08-03T12:20:10.309Z,27.20
2022-08-03T12:25:20.015Z,27.07
2022-08-03T12:30:41.594Z,26.96
2022-08-03T12:35:52.557Z,26.67
2022-08-03T12:41:16.564Z,26.27
2022-08-03T12:46:19.142Z,25.95
2022-08-03T12:51:20.590Z,25.91
2022-08-03T12:56:22.274Z,25.40
2022-08-03T13:01:24.452Z,25.36
2022-08-03T13:06:27.505Z,24.40
2022-08-03T13:11:55.967Z,23.40
2022-08-03T13:16:50.350Z,23.30
2022-08-03T13:21:53.772Z,22.96
2022-08-03T13:28:01.630Z,22.59
2022-08-03T13:32:28.835Z,22.28
2022-08-03T13:37:32.088Z,21.90
2022-08-03T13:42:34.392Z,20.90
2022-08-03T13:47:36.828Z,21.16
2022-08-03T13:52:38.291Z,21.24
2022-08-03T13:58:05.036Z,21.10
2022-08-03T14:03:12.802Z,21.00
2022-08-03T14:08:14.984Z,21.06
2022-08-03T14:13:17.451Z,21.04
2022-08-03T14:18:28.943Z,21.57
2022-08-03T14:23:35.392Z,20.95
2022-08-03T14:28:36.798Z,21.10
2022-08-03T14:33:38.527Z,21.13
2022-08-03T14:44:04.482Z,20.94
2022-08-03T14:50:30.494Z,21.05
2022-08-03T14:54:30.762Z,21.03
2022-08-03T14:59:57.100Z,21.09
2022-08-03T15:04:53.533Z,20.76
2022-08-03T15:09:55.034Z,20.81
2022-08-03T15:14:56.686Z,21.09
2022-08-03T15:20:01.596Z,20.79
2022-08-03T15:26:31.997Z,20.99
2022-08-03T15:30:27.133Z,20.75
2022-08-03T15:35:28.866Z,21.03
2022-08-03T15:40:30.412Z,21.12
2022-08-03T15:45:36.315Z,21.21
2022-08-03T15:50:38.534Z,21.08
2022-08-03T15:55:40.441Z,21.20
2022-08-03T16:00:42.533Z,21.10
2022-08-03T16:05:43.945Z,21.05
2022-08-03T16:10:46.637Z,21.18
2022-08-03T16:15:49.924Z,21.26
2022-08-03T16:20:51.356Z,21.38
2022-08-03T16:25:53.033Z,21.37
2022-08-03T16:30:54.352Z,21.11
2022-08-03T16:35:55.742Z,21.23
2022-08-03T16:40:57.166Z,21.26
2022-08-03T16:45:58.522Z,21.31
2022-08-03T16:50:59.882Z,21.38
2022-08-03T16:56:01.279Z,21.51
2022-08-03T17:01:10.853Z,21.50
2022-08-03T17:06:24.342Z,21.54
2022-08-03T17:11:35.370Z,21.45
2022-08-03T17:16:38.632Z,21.39
2022-08-03T17:21:42.549Z,21.46
2022-08-03T17:26:53.147Z,21.64
2022-08-03T17:31:54.919Z,21.72
2022-08-03T17:37:05.162Z,21.58
2022-08-03T17:42:29.309Z,21.20
2022-08-03T17:47:29.300Z,21.48
2022-08-03T17:52:48.158Z,22.01
2022-08-03T17:58:05.943Z,22.08
2022-08-03T18:03:26.208Z,22.48
2022-08-03T18:08:38.649Z,22.75
2022-08-03T18:13:57.624Z,22.83
2022-08-03T18:19:00.605Z,22.89
2022-08-03T18:24:10.917Z,23.03
2022-08-03T18:29:13.456Z,23.33
2022-08-03T18:34:33.404Z,23.40
2022-08-03T18:39:49.287Z,23.63
2022-08-03T18:44:53.549Z,23.71
2022-08-03T18:50:03.285Z,23.51
2022-08-03T18:55:12.525Z,23.60
2022-08-03T19:00:24.958Z,23.99
2022-08-03T19:05:56.220Z,24.06
2022-08-03T19:11:06.173Z,24.46
2022-08-03T19:16:09.535Z,24.64
2022-08-03T19:21:15.646Z,24.46
2022-08-03T19:26:30.347Z,24.77
2022-08-03T19:31:35.037Z,24.65
2022-08-03T19:42:08.224Z,24.88
2022-08-03T19:47:17.057Z,25.14
2022-08-03T19:52:20.581Z,25.23
2022-08-03T19:57:27.130Z,25.30
2022-08-03T20:02:29.762Z,25.52
2022-08-03T20:07:32.783Z,25.65
2022-08-03T20:12:38.745Z,26.13
2022-08-03T20:17:55.203Z,26.36
2022-08-03T20:22:59.489Z,26.28
2022-08-03T20:28:13.834Z,26.49
2022-08-03T20:33:18.869Z,26.40
2022-08-03T20:38:27.238Z,26.75
2022-08-03T20:43:29.019Z,26.91
2022-08-03T20:48:32.044Z,27.41
2022-08-03T20:58:56.235Z,27.81
2022-08-03T21:03:58.164Z,28.28
2022-08-03T21:09:03.871Z,28.48
2022-08-03T21:13:07.722Z,27.50
2022-08-03T21:13:08.789Z,25.00
2022-08-03T21:14:12.856Z,28.74
2022-08-03T21:19:16.230Z,28.64
2022-08-03T21:24:17.840Z,28.71
2022-08-03T21:29:19.891Z,28.66
2022-08-03T21:34:21.419Z,28.66
2022-08-03T21:39:22.786Z,28.95
2022-08-03T21:44:28.867Z,29.34
2022-08-03T21:50:07.503Z,29.13
2022-08-03T21:54:54.948Z,29.36
2022-08-03T22:00:01.530Z,29.47
2022-08-03T22:05:04.847Z,29.46
2022-08-03T22:10:07.333Z,29.66
2022-08-03T22:15:10.786Z,29.78
2022-08-03T22:20:16.190Z,30.22
2022-08-03T22:25:17.632Z,30.08
2022-08-03T22:30:19.386Z,30.73
2022-08-03T22:35:21.251Z,30.96
2022-08-03T22:40:22.577Z,31.03
2022-08-03T22:46:06.171Z,31.44
2022-08-03T22:50:46.293Z,31.74
2022-08-03T22:55:48.748Z,32.17
2022-08-03T23:00:53.124Z,31.95
2022-08-03T23:06:01.186Z,32.25
2022-08-03T23:11:08.377Z,32.16
2022-08-03T23:16:09.886Z,32.59
2022-08-03T23:21:11.877Z,32.57
2022-08-03T23:26:17.159Z,32.41
2022-08-03T23:31:19.570Z,32.52
2022-08-03T23:36:30.547Z,32.47
2022-08-03T23:41:34.672Z,32.45
2022-08-03T23:46:37.085Z,32.74
2022-08-03T23:51:57.208Z,32.42
2022-08-03T23:57:08.369Z,32.45
